Time;durP1;ratioP1;P1;durP2;ratioP2;P2;SDS_P1;SDS_P2;PMS_P1;PMS_P2;Temp;Humidity;BMP_temperature;BMP_pressure;BME280_temperature;BME280_humidity;BME280_pressure;Samples;Min_cycle;Max_cycle;Signal;HPM_P1;HPM_P2
2021/08/15 00:01:34;;;;;;;11.87;5.23;;;;;;;17.49;72.40;101690.28;2616775;46;20139;-77
2021/08/15 00:03:59;;;;;;;11.67;4.77;;;;;;;17.45;72.60;101688.56;2616776;39;20543;-74
2021/08/15 00:06:24;;;;;;;12.13;4.63;;;;;;;17.46;72.92;101693.72;2616585;47;20215;-77
2021/08/15 00:08:50;;;;;;;14.83;4.80;;;;;;;17.19;73.37;101698.72;2615698;54;20262;-75
2021/08/15 00:11:15;;;;;;;11.73;5.10;;;;;;;17.41;73.29;101692.81;2617699;39;20626;-75
2021/08/15 00:13:40;;;;;;;12.03;4.93;;;;;;;17.28;73.26;101688.44;2615903;54;20128;-76
2021/08/15 00:16:05;;;;;;;11.10;5.07;;;;;;;17.11;73.57;101690.03;2616428;47;20163;-76
2021/08/15 00:18:31;;;;;;;12.50;5.07;;;;;;;16.98;74.24;101688.22;2616304;54;20155;-75
2021/08/15 00:20:56;;;;;;;14.43;5.17;;;;;;;17.31;73.33;101679.81;2616441;54;20132;-75
2021/08/15 00:23:21;;;;;;;10.33;4.53;;;;;;;17.34;72.91;101683.28;2616371;54;20265;-77
2021/08/15 00:25:47;;;;;;;12.20;5.30;;;;;;;17.43;73.03;101678.19;2616493;54;20143;-77
2021/08/15 00:28:12;;;;;;;9.10;4.50;;;;;;;17.04;73.57;101680.50;2616470;39;20609;-77
2021/08/15 00:30:37;;;;;;;13.57;4.93;;;;;;;16.98;73.88;101672.69;2615819;54;20172;-77
2021/08/15 00:33:02;;;;;;;15.20;5.33;;;;;;;17.07;73.93;101669.28;2616551;46;20135;-76
2021/08/15 00:35:28;;;;;;;8.87;4.47;;;;;;;16.98;73.54;101669.22;2616370;54;20132;-75
2021/08/15 00:37:53;;;;;;;10.53;4.83;;;;;;;17.16;73.51;101674.53;2615604;54;20178;-75
2021/08/15 00:40:18;;;;;;;10.00;4.90;;;;;;;17.14;73.45;101658.13;2616341;47;20132;-76
2021/08/15 00:42:43;;;;;;;9.73;4.80;;;;;;;16.88;74.03;101663.16;2616512;54;20135;-74
2021/08/15 00:45:10;;;;;;;12.00;4.70;;;;;;;16.48;75.25;101663.69;2616180;54;20128;-74
2021/08/15 00:47:36;;;;;;;10.23;4.70;;;;;;;16.48;75.26;101663.69;2616347;54;20168;-76
2021/08/15 00:50:02;;;;;;;12.67;5.60;;;;;;;16.58;75.15;101668.06;2616290;54;20131;-75
2021/08/15 00:52:28;;;;;;;15.57;4.97;;;;;;;16.75;74.49;101670.78;2616603;54;20207;-77
2021/08/15 00:55:01;;;;;;;8.93;4.60;;;;;;;16.49;74.84;101673.16;2616506;54;20148;-75
2021/08/15 00:57:34;;;;;;;12.47;4.97;;;;;;;16.30;75.61;101662.63;2616487;54;20220;-76
2021/08/15 01:00:08;;;;;;;13.67;5.30;;;;;;;16.43;75.75;101660.19;2616408;54;20139;-78
2021/08/15 01:02:35;;;;;;;6.77;4.70;;;;;;;16.20;75.79;101659.09;2616755;54;20120;-76
2021/08/15 01:05:03;;;;;;;11.43;4.80;;;;;;;16.38;75.45;101651.50;2616000;54;20147;-76
2021/08/15 01:07:28;;;;;;;13.90;5.57;;;;;;;16.32;75.48;101655.75;2616173;54;20163;-79
2021/08/15 01:09:54;;;;;;;9.20;4.33;;;;;;;16.15;76.06;101655.59;2615950;54;20148;-78
2021/08/15 01:12:19;;;;;;;8.90;4.40;;;;;;;16.18;76.16;101650.47;2616041;54;20225;-78
2021/08/15 01:14:45;;;;;;;11.07;4.87;;;;;;;16.07;76.84;101657.22;2616430;46;20128;-75
2021/08/15 01:17:11;;;;;;;13.03;5.03;;;;;;;15.98;76.99;101651.09;2616274;54;20159;-76
2021/08/15 01:19:37;;;;;;;9.60;4.37;;;;;;;16.01;77.33;101653.69;2616379;54;20155;-75
2021/08/15 01:22:02;;;;;;;9.67;4.70;;;;;;;16.15;76.90;101641.78;2616206;54;20143;-77
2021/08/15 01:24:28;;;;;;;10.93;5.17;;;;;;;16.24;76.49;101641.88;2616224;54;20172;-77
2021/08/15 01:26:54;;;;;;;8.70;5.10;;;;;;;16.50;76.08;101630.97;2616426;54;20123;-76
2021/08/15 01:29:21;;;;;;;10.80;4.90;;;;;;;16.55;75.66;101636.16;2616063;54;20260;-75
2021/08/15 01:31:46;;;;;;;11.93;5.50;;;;;;;16.54;75.48;101647.34;2616101;54;20123;-77
2021/08/15 01:34:11;;;;;;;13.13;5.47;;;;;;;16.34;76.55;101630.78;2615445;54;20455;-77
2021/08/15 01:36:37;;;;;;;11.33;5.43;;;;;;;16.44;76.40;101635.22;2616610;39;20623;-75
2021/08/15 01:39:02;;;;;;;11.67;4.70;;;;;;;16.62;75.72;101636.22;2615378;47;20263;-76
2021/08/15 01:41:27;;;;;;;9.90;4.90;;;;;;;16.66;76.01;101632.78;2616175;54;20665;-78
2021/08/15 01:43:56;;;;;;;9.27;4.73;;;;;;;16.88;75.41;101632.09;2615995;54;20637;-74
2021/08/15 01:46:28;;;;;;;8.70;4.37;;;;;;;16.66;75.82;101624.16;2616141;54;20128;-75
2021/08/15 01:48:54;;;;;;;10.97;4.57;;;;;;;16.85;75.61;101623.47;2616162;54;20203;-75
2021/08/15 01:51:20;;;;;;;7.77;4.23;;;;;;;16.71;75.34;101620.75;2616077;54;20131;-76
2021/08/15 01:53:48;;;;;;;11.53;4.93;;;;;;;16.78;75.82;101619.09;2615964;54;20131;-74
2021/08/15 01:56:13;;;;;;;14.27;5.53;;;;;;;16.53;76.38;101618.03;2616186;54;20668;-77
2021/08/15 01:58:38;;;;;;;10.03;4.57;;;;;;;16.63;76.07;101617.25;2616088;54;20143;-76
2021/08/15 02:01:04;;;;;;;9.37;4.20;;;;;;;16.69;75.48;101611.25;2616250;54;20128;-75
2021/08/15 02:03:30;;;;;;;11.30;4.17;;;;;;;16.67;75.84;101611.25;2616035;54;20152;-76
2021/08/15 02:05:55;;;;;;;11.13;4.67;;;;;;;16.77;75.84;101612.19;2616318;54;20147;-76
2021/08/15 02:08:21;;;;;;;10.13;4.93;;;;;;;16.94;74.67;101614.00;2615564;54;20191;-74
2021/08/15 02:10:46;;;;;;;13.33;4.70;;;;;;;16.85;75.04;101618.28;2616467;39;20580;-75
2021/08/15 02:13:11;;;;;;;6.30;4.00;;;;;;;16.89;74.84;101607.94;2616097;54;20143;-74
2021/08/15 02:15:37;;;;;;;10.17;4.20;;;;;;;16.90;75.35;101612.25;2616181;54;20148;-75
2021/08/15 02:18:03;;;;;;;7.43;4.33;;;;;;;16.77;75.43;101618.19;2615985;54;20151;-76
2021/08/15 02:20:31;;;;;;;9.90;4.40;;;;;;;16.81;75.20;101601.00;2615874;54;20131;-76
2021/08/15 02:22:57;;;;;;;7.97;4.10;;;;;;;16.72;75.71;101606.13;2616147;54;20143;-76
2021/08/15 02:25:25;;;;;;;6.50;3.93;;;;;;;16.66;75.86;101600.88;2616004;54;20142;-77
2021/08/15 02:27:50;;;;;;;9.93;3.73;;;;;;;16.58;76.08;101603.41;2616046;54;20174;-76
2021/08/15 02:30:17;;;;;;;6.90;4.03;;;;;;;16.55;76.25;101608.59;2615790;54;20124;-76
2021/08/15 02:32:43;;;;;;;8.30;4.07;;;;;;;16.69;75.53;101611.25;2616049;54;20139;-76
2021/08/15 02:35:11;;;;;;;9.67;4.30;;;;;;;16.90;75.00;101606.25;2615967;54;20139;-74
2021/08/15 02:37:37;;;;;;;10.20;4.10;;;;;;;16.80;75.01;101602.72;2615847;54;20714;-76
2021/08/15 02:40:04;;;;;;;5.20;2.83;;;;;;;16.70;75.69;101608.69;2615960;54;20653;-77
2021/08/15 02:42:32;;;;;;;7.50;4.10;;;;;;;17.03;74.65;101600.25;2615827;54;20128;-76
2021/08/15 02:44:57;;;;;;;6.87;3.73;;;;;;;16.89;74.93;101605.34;2615813;54;20120;-77
2021/08/15 02:47:23;;;;;;;8.63;3.90;;;;;;;16.85;75.14;101601.00;2616000;54;20207;-76
2021/08/15 02:49:48;;;;;;;6.97;4.00;;;;;;;16.93;74.80;101599.34;2615796;54;20152;-76
2021/08/15 02:52:13;;;;;;;7.67;3.77;;;;;;;16.95;75.24;101595.03;2615828;47;20151;-77
2021/08/15 02:54:39;;;;;;;9.70;4.13;;;;;;;17.05;74.88;101593.38;2615857;54;20132;-74
2021/08/15 02:57:04;;;;;;;11.87;4.40;;;;;;;17.07;75.05;101584.75;2615952;47;20150;-75
2021/08/15 02:59:30;;;;;;;9.07;4.60;;;;;;;17.26;74.19;101576.22;2615722;54;20254;-76
2021/08/15 03:01:55;;;;;;;11.17;4.60;;;;;;;17.36;73.65;101556.41;2615344;54;20147;-75
2021/08/15 03:04:20;;;;;;;9.33;4.00;;;;;;;17.45;72.40;101561.66;2615768;54;20132;-76
2021/08/15 03:06:45;;;;;;;10.73;4.23;;;;;;;17.45;72.87;101559.06;2615745;54;20270;-74
2021/08/15 03:09:11;;;;;;;7.00;3.80;;;;;;;17.43;72.89;101563.34;2616337;54;20123;-77
2021/08/15 03:11:36;;;;;;;7.83;4.03;;;;;;;17.27;73.15;101561.56;2616671;54;20140;-76
2021/08/15 03:14:01;;;;;;;7.63;4.23;;;;;;;17.11;73.99;101563.22;2616897;54;20145;-76
2021/08/15 03:16:27;;;;;;;9.23;4.47;;;;;;;17.18;73.83;101564.94;2616994;54;20191;-76
2021/08/15 03:18:52;;;;;;;7.70;4.10;;;;;;;17.01;74.37;101563.16;2616711;54;20174;-75
2021/08/15 03:21:17;;;;;;;10.53;3.90;;;;;;;16.94;74.68;101551.91;2616757;46;20235;-77
2021/08/15 03:23:42;;;;;;;6.77;3.77;;;;;;;16.95;74.66;101563.13;2616668;54;20148;-76
2021/08/15 03:26:08;;;;;;;7.47;4.60;;;;;;;17.21;73.71;101564.09;2616772;54;20175;-77
2021/08/15 03:28:33;;;;;;;9.87;4.03;;;;;;;16.91;74.13;101569.16;2616512;54;20274;-75
2021/08/15 03:30:58;;;;;;;9.73;3.70;;;;;;;16.91;74.49;101570.00;2616684;46;20920;-76
2021/08/15 03:33:23;;;;;;;7.50;4.00;;;;;;;17.06;74.05;101564.91;2616514;47;20183;-77
2021/08/15 03:35:49;;;;;;;8.93;4.50;;;;;;;16.84;74.14;101568.25;2616484;54;20471;-76
2021/08/15 03:38:14;;;;;;;8.93;4.27;;;;;;;17.07;73.83;101558.88;2617059;39;20528;-79
2021/08/15 03:40:39;;;;;;;8.30;4.57;;;;;;;16.98;73.60;101553.66;2616494;54;20124;-75
2021/08/15 03:43:04;;;;;;;10.63;5.07;;;;;;;17.23;72.55;101550.31;2616854;47;20904;-76
2021/08/15 03:45:30;;;;;;;10.97;4.57;;;;;;;17.06;73.41;101549.38;2616431;46;20143;-75
2021/08/15 03:47:55;;;;;;;8.83;3.90;;;;;;;17.01;73.85;101557.97;2616399;54;20239;-76
2021/08/15 03:50:20;;;;;;;7.43;4.23;;;;;;;16.91;74.31;101559.66;2617085;31;20606;-74
2021/08/15 03:52:46;;;;;;;7.80;3.40;;;;;;;16.85;74.73;101554.44;2616614;54;20166;-75
2021/08/15 03:55:11;;;;;;;6.80;3.43;;;;;;;16.92;74.95;101552.75;2616335;54;20119;-76
2021/08/15 03:57:40;;;;;;;10.40;4.83;;;;;;;16.86;74.24;101555.31;2616543;54;20174;-76
2021/08/15 04:00:07;;;;;;;5.60;4.00;;;;;;;16.94;74.56;101551.91;2616435;54;20128;-77
2021/08/15 04:02:33;;;;;;;7.73;4.13;;;;;;;17.07;74.45;101540.75;2616671;54;20188;-75
2021/08/15 04:04:58;;;;;;;8.20;4.30;;;;;;;17.17;73.45;101541.69;2617245;39;20549;-75
2021/08/15 04:07:24;;;;;;;9.03;4.20;;;;;;;17.07;73.76;101543.34;2618074;54;20203;-77
2021/08/15 04:09:49;;;;;;;6.10;3.80;;;;;;;16.93;74.39;101551.91;2618980;39;20530;-75
2021/08/15 04:12:14;;;;;;;7.10;3.50;;;;;;;16.83;74.82;101563.06;2619522;47;20127;-75
2021/08/15 04:14:40;;;;;;;5.63;2.63;;;;;;;16.78;75.04;101560.47;2625394;54;20144;-76
2021/08/15 04:17:05;;;;;;;7.03;3.93;;;;;;;16.81;75.67;101552.69;2626565;54;20159;-76
2021/08/15 04:19:30;;;;;;;7.10;3.63;;;;;;;16.74;75.81;101550.94;2621582;46;20237;-75
2021/08/15 04:21:56;;;;;;;8.03;4.83;;;;;;;16.72;76.04;101546.63;2617263;54;20128;-76
2021/08/15 04:24:21;;;;;;;7.87;4.00;;;;;;;16.68;76.76;101550.94;2617106;46;20753;-76
2021/08/15 04:26:46;;;;;;;7.20;3.50;;;;;;;16.70;76.48;101559.53;2616913;54;20250;-74
2021/08/15 04:29:13;;;;;;;11.77;5.47;;;;;;;16.63;77.58;101559.50;2616544;54;20235;-75
2021/08/15 04:31:39;;;;;;;7.83;4.63;;;;;;;16.61;78.03;101561.19;2616345;54;20143;-75
2021/08/15 04:34:04;;;;;;;9.73;5.23;;;;;;;16.58;77.95;101556.88;2616505;54;20127;-77
2021/08/15 04:36:30;;;;;;;7.83;4.60;;;;;;;16.69;77.78;101552.66;2616737;47;20123;-77
2021/08/15 04:38:55;;;;;;;10.40;4.73;;;;;;;16.84;77.15;101544.97;2616287;47;20196;-77
2021/08/15 04:41:20;;;;;;;6.87;4.20;;;;;;;16.88;76.68;101544.13;2616386;54;20152;-77
2021/08/15 04:43:45;;;;;;;7.27;3.93;;;;;;;16.82;76.58;101557.03;2616501;46;20781;-76
2021/08/15 04:46:11;;;;;;;7.07;4.43;;;;;;;16.87;76.14;101547.56;2616231;54;20235;-77
2021/08/15 04:48:36;;;;;;;6.17;3.83;;;;;;;16.79;76.72;101551.84;2616327;46;20716;-78
2021/08/15 04:51:01;;;;;;;8.47;4.60;;;;;;;16.93;75.96;101552.78;2615807;54;20116;-77
2021/08/15 04:53:28;;;;;;;8.30;4.67;;;;;;;16.82;76.37;101546.69;2616626;39;20582;-77
2021/08/15 04:55:53;;;;;;;5.87;3.03;;;;;;;16.79;76.75;101543.19;2616309;54;20152;-76
2021/08/15 04:58:18;;;;;;;9.07;4.27;;;;;;;16.79;76.54;101540.63;2616366;54;20151;-78
2021/08/15 05:00:43;;;;;;;7.57;4.40;;;;;;;17.13;74.99;101543.34;2616168;47;20695;-75
2021/08/15 05:03:09;;;;;;;6.10;4.40;;;;;;;16.98;75.53;101547.59;2616237;54;20152;-76
2021/08/15 05:05:38;;;;;;;10.17;4.90;;;;;;;16.90;76.13;101554.50;2615403;50;20151;-74
2021/08/15 05:08:03;;;;;;;8.43;4.77;;;;;;;16.96;75.78;101551.91;2616151;54;20155;-76
2021/08/15 05:10:29;;;;;;;6.60;3.97;;;;;;;16.93;75.74;101544.13;2616305;54;20151;-77
2021/08/15 05:12:54;;;;;;;10.50;4.90;;;;;;;16.92;76.27;101555.34;2616554;47;20138;-76
2021/08/15 05:15:19;;;;;;;11.07;5.27;;;;;;;17.04;75.75;101547.66;2616417;47;20123;-77
2021/08/15 05:17:44;;;;;;;7.27;4.30;;;;;;;17.01;75.96;101545.03;2615534;54;20771;-76
2021/08/15 05:20:11;;;;;;;8.43;4.80;;;;;;;17.03;75.67;101549.38;2616037;54;20147;-76
2021/08/15 05:22:36;;;;;;;8.43;4.37;;;;;;;17.08;76.05;101541.63;2616249;54;20131;-76
2021/08/15 05:25:02;;;;;;;10.33;5.47;;;;;;;16.94;76.07;101556.25;2616302;54;20136;-76
2021/08/15 05:27:28;;;;;;;8.07;4.40;;;;;;;16.86;76.68;101561.34;2616295;54;20155;-77
2021/08/15 05:29:53;;;;;;;12.43;5.87;;;;;;;16.88;76.71;101563.94;2616261;54;20188;-75
2021/08/15 05:32:18;;;;;;;7.23;4.57;;;;;;;16.83;77.20;101563.06;2616609;39;20535;-76
2021/08/15 05:34:43;;;;;;;8.67;4.50;;;;;;;16.84;77.27;101557.91;2616500;47;20120;-75
2021/08/15 05:37:09;;;;;;;7.60;4.70;;;;;;;16.79;77.87;101557.00;2616504;47;20167;-76
2021/08/15 05:39:34;;;;;;;9.17;5.40;;;;;;;16.79;77.68;101557.00;2615532;54;20238;-77
2021/08/15 05:41:59;;;;;;;5.70;4.40;;;;;;;16.84;77.24;101560.47;2616391;54;20154;-74
2021/08/15 05:44:25;;;;;;;8.27;4.50;;;;;;;16.90;77.40;101546.72;2616048;47;20141;-76
2021/08/15 05:46:50;;;;;;;10.77;5.60;;;;;;;17.17;76.28;101550.28;2615927;47;20247;-76
2021/08/15 05:49:15;;;;;;;7.50;4.73;;;;;;;17.05;76.26;101524.38;2616007;54;20143;-77
2021/08/15 05:51:40;;;;;;;10.27;5.43;;;;;;;17.09;76.21;101531.25;2616095;54;20120;-76
2021/08/15 05:54:06;;;;;;;12.17;5.63;;;;;;;17.10;77.46;101533.03;2616236;54;20211;-76
2021/08/15 05:56:33;;;;;;;9.57;4.63;;;;;;;17.21;76.37;101541.69;2615542;51;20227;-78
2021/08/15 05:58:58;;;;;;;7.87;5.13;;;;;;;17.25;76.00;101543.41;2615877;54;20240;-75
2021/08/15 06:01:24;;;;;;;10.37;5.57;;;;;;;17.33;75.68;101541.72;2616465;39;20807;-75
2021/08/15 06:03:49;;;;;;;9.77;4.87;;;;;;;17.51;74.99;101535.75;2616011;47;20127;-75
2021/08/15 06:06:14;;;;;;;11.67;5.50;;;;;;;17.42;75.10;101539.19;2616046;54;20159;-75
2021/08/15 06:08:39;;;;;;;8.07;4.63;;;;;;;17.42;75.44;101543.50;2616378;39;20574;-76
2021/08/15 06:11:04;;;;;;;8.77;4.33;;;;;;;17.39;75.50;101548.63;2616214;47;20155;-74
2021/08/15 06:13:30;;;;;;;10.53;5.40;;;;;;;17.39;75.60;101541.78;2616077;54;20127;-77
2021/08/15 06:15:55;;;;;;;12.33;5.63;;;;;;;17.55;74.86;101540.94;2616055;47;20680;-76
2021/08/15 06:18:20;;;;;;;6.83;4.00;;;;;;;17.50;74.77;101547.84;2616067;54;20170;-73
2021/08/15 06:20:46;;;;;;;6.40;4.30;;;;;;;17.49;74.97;101545.22;2616270;39;20589;-76
2021/08/15 06:23:11;;;;;;;6.63;4.43;;;;;;;17.49;75.02;101540.94;2616051;54;20120;-77
2021/08/15 06:25:36;;;;;;;9.53;5.53;;;;;;;17.84;73.67;101533.22;2616087;54;20150;-76
2021/08/15 06:28:01;;;;;;;10.23;5.40;;;;;;;17.74;73.60;101531.50;2616041;47;20165;-76
2021/08/15 06:30:27;;;;;;;8.37;4.80;;;;;;;17.62;73.77;101529.75;2615937;54;20127;-76
2021/08/15 06:32:54;;;;;;;10.53;5.47;;;;;;;17.58;74.15;101540.06;2615953;54;20152;-76
2021/08/15 06:35:21;;;;;;;10.07;5.87;;;;;;;17.51;74.14;101541.81;2616060;54;20157;-76
2021/08/15 06:37:48;;;;;;;8.20;4.40;;;;;;;17.52;74.25;101538.38;2615958;54;20159;-75
2021/08/15 06:40:14;;;;;;;9.77;5.20;;;;;;;17.93;73.27;101541.88;2615897;54;20130;-74
2021/08/15 06:42:39;;;;;;;8.93;5.17;;;;;;;17.87;72.71;101533.22;2616378;54;20119;-76
2021/08/15 06:45:05;;;;;;;9.33;5.30;;;;;;;17.81;72.80;101536.69;2616852;54;20124;-76
2021/08/15 06:47:31;;;;;;;12.07;6.23;;;;;;;18.31;69.62;101527.19;2616855;54;20135;-76
2021/08/15 06:49:56;;;;;;;9.90;5.33;;;;;;;18.49;69.23;101529.78;2633667;36;20306;-76
2021/08/15 06:52:21;;;;;;;8.13;4.90;;;;;;;18.29;69.73;101528.88;2616145;46;20135;-74
2021/08/15 06:54:46;;;;;;;12.40;5.87;;;;;;;18.79;67.76;101528.84;2616663;46;20123;-75
2021/08/15 06:57:12;;;;;;;12.83;5.73;;;;;;;18.96;67.06;101520.13;2616634;46;20284;-76
2021/08/15 06:59:37;;;;;;;11.57;6.20;;;;;;;19.08;66.16;101525.28;2616295;54;20123;-75
2021/08/15 07:02:02;;;;;;;11.27;5.30;;;;;;;19.13;65.96;101520.03;2616589;54;20144;-74
2021/08/15 07:04:27;;;;;;;11.07;6.00;;;;;;;19.07;66.53;101526.13;2616648;54;20139;-77
2021/08/15 07:06:53;;;;;;;10.67;5.77;;;;;;;18.97;66.77;101521.84;2616722;47;20211;-76
2021/08/15 07:09:18;;;;;;;9.33;4.77;;;;;;;18.68;67.94;101531.47;2616509;46;20226;-77
2021/08/15 07:11:43;;;;;;;9.63;5.50;;;;;;;18.97;65.81;101526.19;2616383;39;20584;-76
2021/08/15 07:14:08;;;;;;;10.80;5.40;;;;;;;19.05;66.49;101529.59;2615869;54;20119;-76
2021/08/15 07:16:34;;;;;;;9.50;5.03;;;;;;;18.79;66.48;101532.28;2616572;54;20179;-74
2021/08/15 07:19:00;;;;;;;10.03;5.07;;;;;;;18.68;67.06;101523.69;2616137;54;20799;-75
2021/08/15 07:21:25;;;;;;;9.87;5.27;;;;;;;18.56;67.87;101522.84;2616499;54;20629;-76
2021/08/15 07:23:50;;;;;;;13.00;5.60;;;;;;;18.73;66.66;101527.13;2616306;54;20124;-75
2021/08/15 07:26:15;;;;;;;10.73;5.67;;;;;;;18.98;65.09;101530.50;2616446;54;20633;-76
2021/08/15 07:28:41;;;;;;;10.30;5.10;;;;;;;18.97;65.13;101526.19;2616430;54;20143;-74
2021/08/15 07:31:06;;;;;;;8.03;4.83;;;;;;;18.88;66.64;101537.44;2616392;54;20120;-75
2021/08/15 07:33:31;;;;;;;9.83;5.80;;;;;;;19.15;64.43;101532.16;2616323;54;20250;-76
2021/08/15 07:35:56;;;;;;;10.63;5.33;;;;;;;19.32;64.84;101537.31;2616395;46;20142;-77
2021/08/15 07:38:23;;;;;;;13.07;6.30;;;;;;;19.55;63.28;101535.44;2616454;54;20168;-76
2021/08/15 07:40:48;;;;;;;12.10;6.00;;;;;;;19.36;63.69;101526.91;2616549;54;20132;-77
2021/08/15 07:43:13;;;;;;;11.20;5.30;;;;;;;19.46;64.13;101525.97;2616681;54;20135;-74
2021/08/15 07:45:39;;;;;;;9.47;6.00;;;;;;;19.50;63.61;101529.41;2617080;47;20123;-74
2021/08/15 07:48:04;;;;;;;10.40;5.80;;;;;;;19.31;65.14;101520.88;2616714;54;20170;-74
2021/08/15 07:50:36;;;;;;;11.83;6.70;;;;;;;19.49;64.43;101512.94;2616609;54;20115;-76
2021/08/15 07:53:15;;;;;;;8.93;5.63;;;;;;;19.35;65.10;101517.34;2616712;54;20139;-74
2021/08/15 07:55:40;;;;;;;10.67;5.90;;;;;;;19.50;63.94;101509.50;2616501;54;20143;-75
2021/08/15 07:58:06;;;;;;;10.00;5.37;;;;;;;19.31;65.05;101517.41;2616534;54;20139;-75
2021/08/15 08:00:31;;;;;;;10.23;5.00;;;;;;;19.47;65.02;101498.25;2616520;54;20160;-77
2021/08/15 08:02:56;;;;;;;7.37;5.00;;;;;;;19.36;65.30;101507.84;2616714;46;20126;-75
2021/08/15 08:05:22;;;;;;;9.43;5.00;;;;;;;19.45;65.14;101502.59;2617093;39;20610;-76
2021/08/15 08:07:47;;;;;;;9.10;4.90;;;;;;;19.36;65.66;101503.53;2616526;54;20159;-75
2021/08/15 08:10:12;;;;;;;11.57;5.53;;;;;;;19.53;65.21;101493.03;2616318;54;20124;-76
2021/08/15 08:12:38;;;;;;;12.07;6.27;;;;;;;19.82;62.93;101493.66;2616753;39;20649;-76
2021/08/15 08:15:03;;;;;;;10.07;5.40;;;;;;;20.01;62.61;101503.03;2616348;54;20227;-74
2021/08/15 08:17:29;;;;;;;8.97;5.17;;;;;;;19.84;63.83;101497.09;2616556;54;20143;-75
2021/08/15 08:19:54;;;;;;;8.67;5.53;;;;;;;20.00;63.35;101499.56;2616622;46;20703;-75
2021/08/15 08:22:19;;;;;;;8.80;5.20;;;;;;;19.91;63.99;101510.06;2616581;54;20131;-76
2021/08/15 08:24:44;;;;;;;9.33;5.37;;;;;;;19.82;64.92;101511.88;2616442;54;20220;-75
2021/08/15 08:27:10;;;;;;;8.20;4.87;;;;;;;19.84;64.89;101507.50;2616649;54;20131;-76
2021/08/15 08:29:35;;;;;;;8.80;5.07;;;;;;;19.87;65.31;101504.88;2617840;47;20128;-75
2021/08/15 08:32:00;;;;;;;10.10;5.67;;;;;;;20.03;63.91;101514.31;2618197;54;20123;-75
2021/08/15 08:34:25;;;;;;;10.93;5.17;;;;;;;19.86;64.91;101508.38;2618788;46;20111;-74
2021/08/15 08:36:51;;;;;;;11.47;5.63;;;;;;;19.94;64.06;101504.81;2617240;54;20130;-76
2021/08/15 08:39:16;;;;;;;11.53;6.13;;;;;;;19.97;64.77;101503.94;2616456;54;20123;-77
2021/08/15 08:41:41;;;;;;;13.23;5.70;;;;;;;19.86;64.61;101504.00;2617207;39;20645;-76
2021/08/15 08:44:08;;;;;;;8.73;5.90;;;;;;;19.89;64.97;101498.81;2616551;54;20211;-76
2021/08/15 08:46:34;;;;;;;8.93;5.50;;;;;;;19.98;64.96;101500.44;2616714;54;20146;-75
2021/08/15 08:48:59;;;;;;;9.60;5.07;;;;;;;19.97;64.69;101494.41;2616218;54;20143;-76
2021/08/15 08:51:24;;;;;;;10.27;6.00;;;;;;;20.16;63.63;101489.91;2616897;39;20549;-75
2021/08/15 08:53:51;;;;;;;12.37;5.83;;;;;;;20.24;63.72;101483.78;2616600;54;20112;-76
2021/08/15 08:56:17;;;;;;;10.90;5.43;;;;;;;20.29;63.66;101486.34;2616420;54;20114;-75
2021/08/15 08:58:43;;;;;;;7.30;5.20;;;;;;;20.27;63.48;101488.94;2616730;54;20143;-74
2021/08/15 09:01:12;;;;;;;12.93;6.90;;;;;;;20.30;63.37;101488.06;2616613;54;20127;-75
2021/08/15 09:03:40;;;;;;;15.17;7.73;;;;;;;20.44;62.30;101481.84;2617730;36;20713;-76
2021/08/15 09:06:19;;;;;;;14.63;7.53;;;;;;;20.54;61.92;101482.63;2616204;39;20831;-75
2021/08/15 09:08:44;;;;;;;13.83;6.30;;;;;;;20.36;63.10;101483.66;2615945;54;20163;-75
2021/08/15 09:11:24;;;;;;;13.50;6.53;;;;;;;20.41;62.57;101476.66;2615738;54;20184;-75
2021/08/15 09:14:03;;;;;;;18.53;8.07;;;;;;;20.62;62.18;101480.78;2615231;51;20149;-75
2021/08/15 09:16:50;;;;;;;12.40;6.37;;;;;;;20.24;63.37;101476.00;2616237;54;20123;-75
2021/08/15 09:19:49;;;;;;;11.50;6.10;;;;;;;20.20;63.67;101470.81;2615849;54;20119;-74
2021/08/15 09:22:19;;;;;;;14.10;7.73;;;;;;;20.30;63.77;101468.13;2627458;36;20723;-75
2021/08/15 09:24:48;;;;;;;13.70;6.50;;;;;;;20.21;64.09;101463.00;2618091;54;20139;-75
2021/08/15 09:27:25;;;;;;;10.83;6.33;;;;;;;20.20;64.44;101456.09;2634708;36;20207;-76
2021/08/15 09:30:15;;;;;;;14.03;7.30;;;;;;;20.25;64.01;101464.69;2622478;54;20587;-76
2021/08/15 09:32:52;;;;;;;12.77;7.03;;;;;;;20.51;63.21;101470.50;2623093;54;20131;-75
2021/08/15 09:35:30;;;;;;;10.17;5.67;;;;;;;20.44;62.88;101463.63;2617972;39;20587;-76
2021/08/15 09:38:00;;;;;;;13.10;6.93;;;;;;;20.45;63.33;101459.28;2616688;54;20165;-74
2021/08/15 09:40:41;;;;;;;11.37;6.50;;;;;;;20.55;63.21;101456.53;2561640;39;3008204;-75
2021/08/15 09:43:17;;;;;;;11.13;6.70;;;;;;;20.58;63.61;101459.13;2614143;54;20247;-75
2021/08/15 09:45:46;;;;;;;14.97;7.43;;;;;;;20.61;63.29;101455.63;2615976;54;20242;-75
2021/08/15 09:48:26;;;;;;;14.93;8.53;;;;;;;20.92;61.45;101455.25;2616426;39;20848;-75
2021/08/15 09:51:14;;;;;;;12.87;7.50;;;;;;;20.62;63.43;101453.00;2616044;54;20162;-78
2021/08/15 09:53:48;;;;;;;13.30;7.23;;;;;;;20.45;64.26;101454.94;2615902;54;20227;-76
2021/08/15 09:56:14;;;;;;;14.03;7.83;;;;;;;20.42;64.08;101457.59;2616098;54;20126;-76
2021/08/15 09:58:39;;;;;;;13.00;7.00;;;;;;;20.44;63.89;101441.94;2615623;54;20147;-75
2021/08/15 10:01:07;;;;;;;10.13;6.43;;;;;;;20.49;64.18;101440.16;2615839;54;20136;-76
2021/08/15 10:03:37;;;;;;;17.67;8.47;;;;;;;20.83;63.27;101438.88;2615937;54;20176;-75
2021/08/15 10:06:02;;;;;;;13.03;7.60;;;;;;;21.05;62.25;101433.38;2616077;54;20158;-76
2021/08/15 10:08:29;;;;;;;11.70;6.37;;;;;;;21.16;63.05;101431.50;2612719;54;20709;-76
2021/08/15 10:10:55;;;;;;;16.27;8.10;;;;;;;21.68;61.18;101428.94;2615691;54;20147;-75
2021/08/15 10:13:21;;;;;;;18.27;8.83;;;;;;;21.89;59.99;101424.25;2615085;54;20139;-75
2021/08/15 10:16:00;;;;;;;13.83;8.03;;;;;;;21.78;60.89;101428.78;2614697;54;20146;-75
2021/08/15 10:18:27;;;;;;;14.67;7.90;;;;;;;21.88;60.38;101413.84;2615614;54;20198;-74
2021/08/15 10:21:11;;;;;;;11.67;6.50;;;;;;;21.84;60.80;101418.25;2615975;54;20127;-77
2021/08/15 10:23:39;;;;;;;13.30;8.03;;;;;;;21.98;59.74;101412.81;2616093;54;20120;-74
2021/08/15 10:26:25;;;;;;;13.20;8.60;;;;;;;22.31;58.27;101412.16;2615362;54;20159;-73
2021/08/15 10:28:50;;;;;;;10.83;6.27;;;;;;;22.09;59.59;101405.63;2615799;54;20179;-75
2021/08/15 10:31:16;;;;;;;14.83;7.27;;;;;;;22.23;59.19;101401.00;2616176;54;20119;-75
2021/08/15 10:33:56;;;;;;;14.13;8.57;;;;;;;22.36;58.79;101402.50;2616398;39;20553;-76
2021/08/15 10:36:28;;;;;;;14.30;8.03;;;;;;;22.33;58.85;101407.75;2616092;54;20115;-74
2021/08/15 10:38:57;;;;;;;12.03;6.73;;;;;;;22.20;59.94;101390.66;2615665;54;20146;-75
2021/08/15 10:41:51;;;;;;;15.17;7.90;;;;;;;22.34;59.69;101399.06;2616403;54;20129;-74
2021/08/15 10:44:17;;;;;;;14.83;8.27;;;;;;;22.68;58.44;101396.63;2615559;54;20255;-75
2021/08/15 10:47:07;;;;;;;12.53;6.73;;;;;;;22.61;58.47;101403.75;2627178;36;20712;-74
2021/08/15 10:49:56;;;;;;;14.20;6.97;;;;;;;22.56;59.36;101396.91;2615781;54;20250;-73
2021/08/15 10:52:37;;;;;;;11.77;7.30;;;;;;;22.62;59.38;101400.25;2615941;54;20140;-75
2021/08/15 10:55:17;;;;;;;13.77;8.20;;;;;;;22.84;58.59;101387.59;2616318;39;20524;-73
2021/08/15 10:57:46;;;;;;;12.10;6.90;;;;;;;23.03;58.41;101391.50;2616393;39;20543;-75
2021/08/15 11:00:29;;;;;;;19.17;8.65;;;;;;;23.11;60.09;101385.22;2615778;54;20128;-75
2021/08/15 11:02:59;;;;;;;12.82;8.20;;;;;;;23.45;58.42;101367.88;2615986;54;20174;-75
2021/08/15 11:05:38;;;;;;;14.15;7.57;;;;;;;23.80;56.91;101374.81;2615945;54;20112;-76
2021/08/15 11:08:04;;;;;;;12.95;6.90;;;;;;;24.20;55.79;101362.38;2615912;54;20242;-75
2021/08/15 11:11:09;;;;;;;13.18;7.80;;;;;;;24.67;55.99;101364.53;2615797;54;20129;-75
2021/08/15 11:13:36;;;;;;;12.95;7.60;;;;;;;25.12;54.65;101358.72;2614290;54;20139;-76
2021/08/15 11:16:23;;;;;;;12.10;6.75;;;;;;;25.48;52.45;101352.31;2614494;54;20147;-75
2021/08/15 11:19:07;;;;;;;15.18;6.53;;;;;;;25.79;50.33;101349.50;2614884;54;20151;-74
2021/08/15 11:22:03;;;;;;;8.60;5.80;;;;;;;25.81;51.20;101345.03;2616204;47;20235;-74
2021/08/15 11:24:32;;;;;;;12.18;6.80;;;;;;;26.01;49.95;101340.00;2615612;54;20126;-74